Terminal Aerodrome Forecast
Issued by NWS

Home | Current Version | Previous Version | Text Only | Print | Product List | Glossary On
Versions: 1 2 3 4 5 6 7 8 9 10 11 12 13
000
FTUS46 KSEW 071733
TAFBFI
TAF
KBFI 071733Z 0718/0818 VRB03KT P6SM SCT020
      TEMPO 0718/0719 BKN020
     FM072000 30006KT P6SM FEW250
     FM080300 VRB03KT P6SM SKC
     FM080800 00000KT P6SM SCT100=

USA.gov is the U.S. government's official web portal to all federal, state and local government web resources and services.